Time;durP1;ratioP1;P1;durP2;ratioP2;P2;SDS_P1;SDS_P2;PMS_P1;PMS_P2;Temp;Humidity;BMP_temperature;BMP_pressure;BME280_temperature;BME280_humidity;BME280_pressure;Samples;Min_cycle;Max_cycle;Signal;HPM_P1;HPM_P2
2021/12/04 00:02:07;;;;;;;8.50;7.70;;;;;;;5.24;82.03;99802.22;3567751;40;20060;-64
2021/12/04 00:04:37;;;;;;;8.15;7.35;;;;;;;5.32;81.58;99802.63;3569421;40;20384;-64
2021/12/04 00:07:07;;;;;;;11.02;7.72;;;;;;;5.31;81.85;99800.94;3565793;40;20089;-64
2021/12/04 00:09:35;;;;;;;8.70;7.90;;;;;;;5.23;81.62;99794.31;3568855;40;20061;-64
2021/12/04 00:12:03;;;;;;;8.07;7.28;;;;;;;5.18;81.53;99767.94;3565461;40;20073;-64
2021/12/04 00:14:32;;;;;;;8.48;7.05;;;;;;;5.35;81.37;99778.47;3565722;40;20103;-64
2021/12/04 00:16:59;;;;;;;9.50;7.55;;;;;;;5.33;81.50;99772.41;3565532;40;20135;-64
2021/12/04 00:19:27;;;;;;;7.95;7.15;;;;;;;5.14;81.54;99729.09;3565261;40;20053;-64
2021/12/04 00:21:55;;;;;;;7.20;6.50;;;;;;;5.38;81.25;99763.28;3564556;40;20055;-64
2021/12/04 00:24:23;;;;;;;8.25;7.45;;;;;;;5.38;81.43;99757.94;3564651;40;20052;-64
2021/12/04 00:26:50;;;;;;;8.15;7.38;;;;;;;5.37;81.35;99764.22;3567463;40;20048;-64
2021/12/04 00:29:17;;;;;;;7.95;7.20;;;;;;;5.38;81.22;99757.94;3571523;40;20049;-64
2021/12/04 00:31:47;;;;;;;8.77;7.95;;;;;;;5.38;81.37;99763.28;3570219;40;20048;-64
2021/12/04 00:34:14;;;;;;;8.75;7.85;;;;;;;5.38;81.59;99763.28;3569626;40;20045;-64
2021/12/04 00:50:13;;;;;;;10.13;8.32;;;;;;;5.39;81.40;99749.00;3570299;40;20063;-64
2021/12/04 00:52:39;;;;;;;8.82;8.02;;;;;;;5.39;81.29;99739.19;3569190;40;20068;-64
2021/12/04 00:55:07;;;;;;;9.15;8.25;;;;;;;5.38;81.07;99733.97;3566710;40;20406;-64
2021/12/04 00:57:34;;;;;;;8.65;7.70;;;;;;;5.38;81.44;99741.97;3568782;40;20057;-64
2021/12/04 01:00:00;;;;;;;9.63;8.73;;;;;;;5.41;81.71;99741.78;3570512;40;20069;-64
2021/12/04 01:02:26;;;;;;;9.95;9.02;;;;;;;5.40;81.24;99743.59;3567113;40;20061;-63
2021/12/04 01:04:52;;;;;;;9.93;8.98;;;;;;;5.41;81.47;99741.78;3565855;40;20061;-65
2021/12/04 01:07:20;;;;;;;9.70;8.75;;;;;;;5.40;81.59;99750.72;3568634;40;20055;-64
2021/12/04 01:09:47;;;;;;;9.27;8.48;;;;;;;5.40;81.47;99740.94;3569275;40;20057;-64
2021/12/04 01:12:13;;;;;;;11.07;9.43;;;;;;;5.42;81.54;99740.81;3567937;40;20063;-64
2021/12/04 01:14:39;;;;;;;9.73;8.82;;;;;;;5.32;81.34;99733.34;3568329;40;20091;-64
2021/12/04 01:17:06;;;;;;;9.00;8.20;;;;;;;5.42;81.44;99747.00;3568145;40;20170;-65
2021/12/04 01:19:32;;;;;;;9.00;8.13;;;;;;;5.39;81.17;99743.66;3570762;40;20056;-64
2021/12/04 01:21:58;;;;;;;9.60;8.60;;;;;;;5.44;81.36;99746.94;3569349;40;20045;-64
2021/12/04 01:24:24;;;;;;;9.63;8.13;;;;;;;5.42;81.28;99736.34;3569237;40;20048;-64
2021/12/04 01:26:51;;;;;;;8.35;7.65;;;;;;;5.46;81.18;99739.72;3569764;40;20057;-64
2021/12/04 01:29:18;;;;;;;9.60;8.60;;;;;;;5.37;81.47;99733.09;3565957;40;20076;-64
2021/12/04 01:31:44;;;;;;;8.77;7.72;;;;;;;5.49;81.54;99745.72;3569611;40;20044;-64
2021/12/04 01:34:11;;;;;;;8.13;7.43;;;;;;;5.45;81.44;99736.16;3567878;40;20086;-64
2021/12/04 01:36:37;;;;;;;7.88;7.15;;;;;;;5.48;81.35;99740.47;3564849;40;20358;-64
2021/12/04 01:39:05;;;;;;;8.63;7.82;;;;;;;5.48;81.22;99727.13;3567152;40;20048;-64
2021/12/04 01:41:33;;;;;;;8.85;7.68;;;;;;;5.49;81.32;99728.88;3569094;40;20045;-64
2021/12/04 01:44:01;;;;;;;8.00;7.38;;;;;;;5.51;81.46;99733.16;3567222;40;20127;-65
2021/12/04 01:46:29;;;;;;;8.73;7.28;;;;;;;5.51;81.17;99734.97;3570136;40;20280;-64
2021/12/04 01:48:55;;;;;;;8.30;7.57;;;;;;;5.51;82.03;99732.28;3568610;40;20045;-64
2021/12/04 01:51:21;;;;;;;9.20;7.20;;;;;;;5.53;81.74;99730.41;3571127;40;20047;-65
2021/12/04 01:53:47;;;;;;;10.15;7.40;;;;;;;5.19;81.80;99673.75;3569184;40;20061;-65
2021/12/04 01:56:13;;;;;;;8.27;7.60;;;;;;;5.47;81.26;99720.09;3568384;40;20105;-64
2021/12/04 01:58:43;;;;;;;7.82;7.13;;;;;;;4.78;81.08;99599.75;3570144;40;20097;-64
2021/12/04 02:01:10;;;;;;;8.40;7.70;;;;;;;5.54;81.12;99726.78;3568608;40;20265;-64
2021/12/04 02:03:37;;;;;;;10.60;7.75;;;;;;;5.53;81.44;99722.41;3569730;40;20056;-64
2021/12/04 02:06:03;;;;;;;8.68;7.88;;;;;;;5.57;81.13;99722.13;3569347;40;20166;-64
2021/12/04 02:08:29;;;;;;;8.73;7.85;;;;;;;5.54;81.29;99724.13;3569431;40;20081;-64
2021/12/04 02:11:00;;;;;;;9.07;8.27;;;;;;;4.94;81.38;99614.84;3568859;40;20311;-64
2021/12/04 02:13:26;;;;;;;9.27;8.15;;;;;;;5.56;81.08;99714.25;3570279;40;20065;-64
2021/12/04 02:15:53;;;;;;;8.07;7.28;;;;;;;5.55;81.31;99694.72;3566523;40;20053;-64
2021/12/04 02:18:22;;;;;;;8.05;7.35;;;;;;;5.56;81.23;99687.59;3567322;40;20053;-63
2021/12/04 02:20:51;;;;;;;9.00;8.20;;;;;;;5.54;80.77;99678.81;3569133;40;20311;-64
2021/12/04 02:23:17;;;;;;;8.75;7.90;;;;;;;5.48;81.49;99658.69;3568121;40;20113;-64
2021/12/04 02:25:43;;;;;;;9.60;8.35;;;;;;;5.57;80.88;99675.97;3570732;40;20056;-63
2021/12/04 02:28:12;;;;;;;9.05;8.25;;;;;;;5.57;81.22;99667.97;3568682;40;20135;-64
2021/12/04 02:30:43;;;;;;;9.40;8.45;;;;;;;5.54;80.93;99662.81;3569154;40;20122;-63
2021/12/04 02:33:14;;;;;;;8.32;7.57;;;;;;;5.52;81.37;99664.72;3571066;40;20056;-64
2021/12/04 02:35:51;;;;;;;10.05;8.63;;;;;;;5.51;80.94;99653.19;3559028;40;20052;-64
2021/12/04 02:38:19;;;;;;;9.50;8.55;;;;;;;5.53;80.96;99651.28;3565961;40;20053;-64
2021/12/04 02:40:46;;;;;;;9.63;8.40;;;;;;;5.49;80.52;99640.94;3568374;40;20057;-64
2021/12/04 02:43:12;;;;;;;10.32;8.50;;;;;;;5.55;81.19;99648.53;3566927;40;20049;-65
2021/12/04 02:45:39;;;;;;;10.68;8.88;;;;;;;5.54;81.09;99646.81;3557466;40;20064;-63
2021/12/04 02:48:05;;;;;;;9.65;8.70;;;;;;;5.54;80.86;99638.81;3564511;40;20062;-64
2021/12/04 02:50:31;;;;;;;9.23;8.32;;;;;;;5.42;80.96;99626.22;3566703;40;20399;-64
2021/12/04 02:52:56;;;;;;;9.40;8.50;;;;;;;5.24;80.78;99593.56;3566964;40;20060;-64
2021/12/04 02:55:22;;;;;;;9.77;8.77;;;;;;;5.49;80.89;99643.59;3566050;40;20099;-64
2021/12/04 02:57:47;;;;;;;9.57;8.40;;;;;;;5.51;81.02;99642.53;3568859;40;20264;-64
2021/12/04 03:00:23;;;;;;;10.05;9.07;;;;;;;5.53;81.22;99650.44;3568992;40;20060;-65
2021/12/04 03:02:49;;;;;;;9.77;8.77;;;;;;;5.44;81.41;99624.34;3568113;40;20040;-64
2021/12/04 03:05:22;;;;;;;8.98;8.07;;;;;;;5.45;81.13;99626.03;3601813;23;20048;-65
2021/12/04 03:07:48;;;;;;;8.55;7.72;;;;;;;5.59;81.04;99644.75;3581475;40;20054;-66
2021/12/04 03:10:14;;;;;;;8.88;8.18;;;;;;;5.59;80.83;99642.09;3579145;40;20057;-66
2021/12/04 03:12:41;;;;;;;9.30;8.40;;;;;;;5.58;81.12;99632.34;3579598;40;20048;-64
2021/12/04 03:15:08;;;;;;;8.57;7.75;;;;;;;5.57;80.68;99636.81;3577898;40;20147;-65
2021/12/04 03:17:34;;;;;;;10.35;8.18;;;;;;;5.59;80.50;99626.94;3582390;40;20099;-66
2021/12/04 03:20:01;;;;;;;8.13;7.43;;;;;;;5.49;80.82;99611.59;3578212;40;20059;-65
2021/12/04 03:22:27;;;;;;;9.13;7.57;;;;;;;5.59;81.03;99626.09;3578629;40;20130;-65
2021/12/04 03:24:55;;;;;;;7.53;6.82;;;;;;;5.59;80.83;99628.75;3580261;40;20060;-65
2021/12/04 03:27:21;;;;;;;7.60;6.90;;;;;;;5.59;81.11;99623.41;3581794;40;20109;-65
2021/12/04 03:29:54;;;;;;;6.80;6.20;;;;;;;5.62;80.80;99612.56;3580512;40;20578;-63
2021/12/04 03:43:08;;;;;;;5.60;5.10;;;;;;;5.56;80.91;99602.28;3575963;40;20076;-66
2021/12/04 03:45:37;;;;;;;5.57;5.07;;;;;;;5.55;80.84;99609.44;3574727;40;20104;-66
2021/12/04 03:48:50;;;;;;;5.47;4.72;;;;;;;5.55;80.57;99600.53;3576679;40;20075;-65
2021/12/04 03:50:50;;;;;;;5.00;4.47;;;;;;;5.56;80.86;99596.94;3578490;40;20060;-67
2021/12/04 03:53:15;;;;;;;4.95;4.50;;;;;;;5.56;80.68;99592.47;3577438;40;20052;-65
2021/12/04 03:55:41;;;;;;;4.95;4.53;;;;;;;5.57;80.64;99588.00;3578911;40;20066;-64
2021/12/04 03:58:07;;;;;;;4.72;4.32;;;;;;;5.57;80.41;99590.66;3578780;40;20061;-66
2021/12/04 04:00:33;;;;;;;4.63;3.75;;;;;;;5.58;80.31;99587.03;3566785;40;20095;-65
2021/12/04 04:02:58;;;;;;;4.57;4.18;;;;;;;5.56;80.68;99587.16;3577996;40;20056;-66
2021/12/04 04:05:24;;;;;;;4.85;4.25;;;;;;;5.48;80.90;99575.22;3572133;40;20344;-65
2021/12/04 04:07:50;;;;;;;4.43;4.03;;;;;;;5.34;80.24;99550.28;3581318;40;20117;-65
2021/12/04 04:10:16;;;;;;;4.38;4.03;;;;;;;5.46;80.26;99562.00;3575439;40;20394;-66
2021/12/04 04:12:41;;;;;;;4.50;4.10;;;;;;;5.56;80.39;99575.63;3578588;40;20048;-66
2021/12/04 04:15:07;;;;;;;4.20;3.80;;;;;;;5.61;80.36;99572.66;3577456;40;20045;-65
2021/12/04 04:17:41;;;;;;;4.03;3.65;;;;;;;5.59;80.50;99578.09;3579484;40;20064;-65
2021/12/04 04:20:12;;;;;;;4.15;3.58;;;;;;;5.60;80.19;99577.16;3579816;40;20048;-65
2021/12/04 04:22:39;;;;;;;4.72;3.72;;;;;;;5.61;80.77;99575.34;3579796;40;20096;-65
2021/12/04 04:25:06;;;;;;;4.18;3.85;;;;;;;5.53;80.70;99555.34;3584842;40;20072;-66
2021/12/04 04:27:32;;;;;;;3.92;3.63;;;;;;;5.61;80.38;99570.00;3579478;40;20049;-66
2021/12/04 04:29:57;;;;;;;4.10;3.80;;;;;;;5.60;80.24;99571.81;3582305;40;20074;-66
2021/12/04 04:32:24;;;;;;;3.60;3.25;;;;;;;5.37;80.71;99527.06;3581538;40;20468;-65
2021/12/04 04:34:53;;;;;;;3.70;3.40;;;;;;;5.45;80.39;99535.44;3578799;40;20055;-65
2021/12/04 04:37:35;;;;;;;4.10;3.70;;;;;;;5.62;80.69;99559.25;3578661;40;20045;-65
2021/12/04 05:14:57;;;;;;;3.20;3.00;;;;;;;5.51;80.81;99524.41;3578556;40;19936;-65
2021/12/04 05:17:31;;;;;;;3.42;3.13;;;;;;;5.61;80.86;99538.88;3575380;40;20093;-65
2021/12/04 05:19:56;;;;;;;;;;;;;;;5.39;80.53;99496.69;3580207;40;20067;-65
2021/12/04 05:22:23;;;;;;;3.30;3.00;;;;;;;5.61;80.97;99530.00;3577202;40;19932;-67
2021/12/04 05:24:49;;;;;;;4.95;3.00;;;;;;;5.49;81.00;99508.53;3580243;40;20053;-66
2021/12/04 05:27:16;;;;;;;4.72;2.83;;;;;;;5.62;80.51;99535.28;3579342;40;20052;-65
2021/12/04 05:29:42;;;;;;;3.20;3.00;;;;;;;5.66;80.36;99536.78;3577166;40;20088;-64
2021/12/04 05:32:11;;;;;;;3.45;3.15;;;;;;;5.67;80.42;99540.31;3576979;40;20048;-65
2021/12/04 05:34:36;;;;;;;3.30;3.10;;;;;;;5.67;80.32;99537.63;3580283;40;20052;-66
2021/12/04 05:37:03;;;;;;;3.28;3.08;;;;;;;5.65;80.54;99535.06;3579068;40;20406;-65
2021/12/04 05:39:29;;;;;;;3.80;3.50;;;;;;;5.66;80.06;99531.44;3576732;40;20061;-64
2021/12/04 05:41:55;;;;;;;5.13;3.22;;;;;;;5.67;80.44;99530.50;3576948;40;20087;-65
2021/12/04 05:44:25;;;;;;;3.25;3.05;;;;;;;5.66;80.35;99534.13;3579059;40;20101;-64
2021/12/04 05:47:00;;;;;;;3.83;3.20;;;;;;;5.70;80.53;99530.28;3578646;40;20108;-66
2021/12/04 05:50:43;;;;;;;4.68;3.20;;;;;;;5.63;79.82;99517.47;3578886;40;20045;-66
2021/12/04 05:55:13;;;;;;;3.92;3.63;;;;;;;5.71;80.12;99518.69;3578007;40;20055;-67
2021/12/04 05:57:39;;;;;;;4.32;3.55;;;;;;;5.71;80.52;99520.47;3575180;40;20445;-65
2021/12/04 06:00:20;;;;;;;3.90;3.60;;;;;;;5.72;80.81;99516.88;3576396;40;20065;-65
2021/12/04 06:02:46;;;;;;;3.88;3.58;;;;;;;5.74;80.52;99523.84;3579562;40;20058;-65
2021/12/04 06:05:12;;;;;;;4.10;3.70;;;;;;;5.52;80.30;99483.50;3578717;40;20048;-66
2021/12/04 06:07:38;;;;;;;3.85;3.58;;;;;;;5.72;80.46;99509.75;3578800;40;20368;-63
2021/12/04 06:10:06;;;;;;;4.18;3.78;;;;;;;5.76;80.74;99518.41;3576038;40;20055;-65
2021/12/04 06:12:32;;;;;;;4.00;3.65;;;;;;;5.74;80.41;99502.50;3577240;40;20045;-67
2021/12/04 06:14:59;;;;;;;3.97;3.67;;;;;;;5.67;80.24;99487.84;3570563;40;20104;-66
2021/12/04 06:17:28;;;;;;;3.92;3.33;;;;;;;5.77;80.41;99507.66;3579612;40;20053;-65
2021/12/04 06:22:44;;;;;;;4.75;3.40;;;;;;;5.76;80.57;99513.91;3577215;40;20290;-66
2021/12/04 06:25:19;;;;;;;3.63;3.33;;;;;;;5.78;80.05;99512.03;3580242;40;20056;-66
2021/12/04 06:27:46;;;;;;;3.95;3.65;;;;;;;5.78;80.15;99509.34;3577401;40;20091;-67
2021/12/04 06:30:16;;;;;;;3.70;3.40;;;;;;;5.71;80.33;99492.03;3578011;40;20075;-66
2021/12/04 06:32:42;;;;;;;3.45;3.15;;;;;;;5.79;80.05;99504.88;3577703;40;20060;-65
2021/12/04 06:35:11;;;;;;;3.30;3.10;;;;;;;5.80;80.14;99510.13;3578233;40;20055;-68
2021/12/04 06:37:37;;;;;;;4.05;3.05;;;;;;;5.80;79.68;99523.47;3577351;40;20048;-66
2021/12/04 06:40:06;;;;;;;3.70;3.30;;;;;;;5.79;80.00;99519.06;3576765;40;20048;-66
2021/12/04 06:42:31;;;;;;;3.72;3.42;;;;;;;5.80;80.17;99515.47;3579071;40;20103;-66
2021/12/04 06:44:57;;;;;;;3.53;3.25;;;;;;;5.79;80.19;99512.88;3574951;40;20075;-68
2021/12/04 06:47:24;;;;;;;3.60;3.30;;;;;;;5.81;80.26;99522.50;3576080;40;20110;-65
2021/12/04 06:49:53;;;;;;;3.90;3.60;;;;;;;5.81;80.21;99516.31;3577032;40;20044;-68
2021/12/04 06:52:23;;;;;;;4.15;3.67;;;;;;;5.81;80.20;99517.16;3576958;40;20078;-64
2021/12/04 06:54:57;;;;;;;4.43;3.72;;;;;;;5.82;80.15;99518.88;3577538;40;20420;-67
2021/12/04 06:57:24;;;;;;;4.38;3.88;;;;;;;5.82;80.10;99524.19;3578275;40;20080;-64
2021/12/04 06:59:53;;;;;;;4.38;3.78;;;;;;;5.58;80.53;99488.41;3577795;40;20080;-67
2021/12/04 07:02:19;;;;;;;4.90;4.10;;;;;;;5.86;80.05;99534.66;3576625;40;20056;-66
2021/12/04 07:04:45;;;;;;;4.90;4.25;;;;;;;5.86;79.91;99524.84;3578263;40;20114;-66
2021/12/04 07:07:11;;;;;;;5.30;4.15;;;;;;;5.87;80.54;99523.03;3577025;40;20072;-66
2021/12/04 07:09:40;;;;;;;4.53;3.92;;;;;;;5.87;79.91;99518.59;3578966;40;20064;-65
2021/12/04 07:12:08;;;;;;;4.38;3.97;;;;;;;5.88;79.71;99522.09;3577616;40;20061;-67
2021/12/04 07:14:34;;;;;;;6.10;3.95;;;;;;;5.73;80.28;99507.91;3576729;40;20079;-65
2021/12/04 07:17:02;;;;;;;5.75;4.13;;;;;;;5.64;80.09;99484.50;3578560;40;20669;-66
2021/12/04 07:19:29;;;;;;;3.95;3.65;;;;;;;5.89;80.46;99518.47;3577404;40;20090;-66
2021/12/04 07:21:55;;;;;;;4.38;3.97;;;;;;;5.91;79.95;99516.56;3576940;40;21701;-66
2021/12/04 07:24:21;;;;;;;5.22;4.07;;;;;;;5.89;80.45;99513.16;3578211;40;20376;-67
2021/12/04 07:26:47;;;;;;;4.32;3.90;;;;;;;5.92;80.39;99513.81;3577804;40;20052;-65
2021/12/04 07:29:13;;;;;;;7.07;4.15;;;;;;;5.95;80.03;99515.44;3577514;40;20053;-65
2021/12/04 07:31:39;;;;;;;4.38;3.70;;;;;;;5.93;79.65;99515.56;3579367;40;20089;-65
2021/12/04 07:34:06;;;;;;;4.32;3.92;;;;;;;5.93;80.18;99514.69;3580073;40;20307;-66
2021/12/04 07:36:33;;;;;;;4.28;3.88;;;;;;;5.80;79.68;99491.47;3578141;40;20057;-66
2021/12/04 07:38:59;;;;;;;4.38;3.92;;;;;;;5.93;79.98;99509.34;3575124;40;20105;-66
2021/12/04 07:41:27;;;;;;;4.80;4.28;;;;;;;5.94;79.99;99513.75;3579526;40;20059;-65
2021/12/04 07:43:53;;;;;;;4.22;3.80;;;;;;;5.93;79.84;99504.91;3576652;40;20058;-64
2021/12/04 07:46:19;;;;;;;4.25;3.85;;;;;;;5.95;79.76;99500.31;3577719;40;20096;-66
2021/12/04 07:48:46;;;;;;;4.05;3.65;;;;;;;5.94;79.77;99501.25;3579033;40;20062;-65
2021/12/04 07:51:17;;;;;;;4.60;4.20;;;;;;;5.96;79.91;99506.50;3577967;40;20049;-64
2021/12/04 07:53:46;;;;;;;5.32;4.28;;;;;;;5.96;79.40;99501.16;3577904;40;20052;-66
2021/12/04 07:56:16;;;;;;;5.30;4.00;;;;;;;5.96;80.13;99506.50;3576235;40;20067;-68
2021/12/04 07:58:45;;;;;;;3.95;3.53;;;;;;;5.73;79.75;99470.59;3580650;40;20093;-65
2021/12/04 08:01:12;;;;;;;4.82;3.90;;;;;;;5.96;80.08;99487.81;3579603;40;20167;-66
2021/12/04 08:03:39;;;;;;;4.57;4.10;;;;;;;5.95;80.13;99483.44;3578575;40;20383;-64
2021/12/04 08:06:05;;;;;;;7.72;4.10;;;;;;;5.99;79.97;99493.84;3578227;40;20056;-65
2021/12/04 08:08:32;;;;;;;4.90;4.45;;;;;;;6.02;80.33;99498.09;3579633;40;20099;-65
2021/12/04 08:10:58;;;;;;;5.70;4.13;;;;;;;6.02;80.09;99492.75;3578821;40;20079;-65
2021/12/04 08:13:23;;;;;;;5.05;4.25;;;;;;;6.07;79.81;99489.81;3578795;40;20376;-65
2021/12/04 08:15:49;;;;;;;6.60;4.90;;;;;;;6.08;79.99;99484.38;3575942;40;20409;-65
2021/12/04 08:18:14;;;;;;;6.20;4.95;;;;;;;6.10;80.04;99478.94;3576875;40;20064;-65
2021/12/04 08:20:40;;;;;;;5.05;4.30;;;;;;;6.09;80.08;99478.09;3578484;40;20158;-65
2021/12/04 08:23:07;;;;;;;4.43;4.03;;;;;;;6.09;79.59;99472.75;3578019;40;20072;-64
2021/12/04 08:25:34;;;;;;;6.63;4.07;;;;;;;5.93;79.27;99446.22;3578761;40;20041;-65
2021/12/04 08:28:02;;;;;;;4.95;4.47;;;;;;;6.05;79.56;99465.88;3577645;40;20052;-65
2021/12/04 08:30:32;;;;;;;5.43;4.47;;;;;;;6.03;80.02;99452.66;3578725;40;20093;-65
2021/12/04 08:32:59;;;;;;;4.70;4.30;;;;;;;6.09;79.95;99454.09;3570314;40;20052;-66
2021/12/04 08:35:31;;;;;;;5.07;4.28;;;;;;;6.10;79.23;99446.94;3575828;40;20064;-66
2021/12/04 08:37:58;;;;;;;4.80;4.32;;;;;;;6.10;79.42;99453.13;3576122;40;20056;-67
2021/12/04 08:40:26;;;;;;;6.47;4.90;;;;;;;6.13;79.81;99452.06;3578059;40;20075;-65
2021/12/04 08:42:52;;;;;;;6.38;5.28;;;;;;;6.08;79.72;99444.34;3576129;40;20084;-65
2021/12/04 08:45:19;;;;;;;5.65;4.82;;;;;;;6.12;79.36;99435.22;3578007;40;20060;-64
2021/12/04 08:47:46;;;;;;;5.45;4.35;;;;;;;6.13;79.37;99442.25;3582637;40;20378;-66
2021/12/04 08:50:21;;;;;;;4.43;4.03;;;;;;;6.13;79.61;99442.25;3579281;40;20045;-65
2021/12/04 08:52:47;;;;;;;4.20;3.90;;;;;;;6.12;79.11;99429.88;3577381;40;20056;-65
2021/12/04 08:55:15;;;;;;;4.57;4.18;;;;;;;6.12;80.23;99434.31;3578949;40;20045;-66
2021/12/04 08:57:41;;;;;;;5.00;4.10;;;;;;;6.00;79.51;99404.00;3576615;40;20060;-65
2021/12/04 09:00:15;;;;;;;4.32;3.92;;;;;;;6.17;79.77;99427.75;3579397;40;20052;-64
2021/12/04 09:02:42;;;;;;;;;;;;;;;6.21;79.23;99434.56;3578719;40;20272;-64
2021/12/04 09:05:11;;;;;;;4.90;4.40;;;;;;;6.08;79.71;99407.00;3576480;40;19952;-65
2021/12/04 09:07:38;;;;;;;5.75;4.78;;;;;;;6.32;79.23;99430.34;3617922;22;20136;-65
2021/12/04 09:10:06;;;;;;;5.35;4.72;;;;;;;6.35;79.36;99438.16;3591661;40;20048;-66
2021/12/04 09:12:33;;;;;;;6.60;5.05;;;;;;;6.30;79.53;99427.78;3594154;39;20052;-65
2021/12/04 09:15:01;;;;;;;5.88;4.93;;;;;;;6.39;78.82;99437.00;3591471;40;20052;-66
2021/12/04 09:17:27;;;;;;;6.65;5.43;;;;;;;6.33;78.86;99416.03;3591322;40;20086;-65
2021/12/04 09:19:53;;;;;;;6.07;5.45;;;;;;;6.44;78.99;99419.72;3591328;40;20381;-65
2021/12/04 09:22:27;;;;;;;6.07;5.47;;;;;;;6.48;79.23;99410.53;3588565;40;20106;-66
2021/12/04 09:24:56;;;;;;;5.85;5.25;;;;;;;6.47;78.70;99402.63;3590142;39;20104;-65
2021/12/04 09:30:12;;;;;;;5.63;5.03;;;;;;;6.51;78.43;99399.66;3592177;39;20056;-65
2021/12/04 09:35:28;;;;;;;5.95;5.28;;;;;;;6.53;78.11;99401.34;3591138;40;20047;-65
2021/12/04 10:00:07;;;;;;;6.38;5.00;;;;;;;6.58;77.64;99377.88;3592801;40;20051;-65
2021/12/04 10:02:56;;;;;;;6.05;5.18;;;;;;;6.61;78.15;99389.19;3591718;40;20360;-66
2021/12/04 10:06:02;;;;;;;6.18;5.53;;;;;;;6.62;78.14;99398.91;3588314;39;20062;-65
2021/12/04 10:14:22;;;;;;;7.90;5.70;;;;;;;6.62;78.40;99384.72;3591016;40;20578;-64
2021/12/04 10:22:25;;;;;;;9.38;6.40;;;;;;;6.55;78.44;99380.75;3591108;39;20113;-64
2021/12/04 10:33:41;;;;;;;8.48;6.07;;;;;;;6.52;78.37;99357.78;3588861;40;20105;-64
2021/12/04 10:36:07;;;;;;;7.93;6.78;;;;;;;6.47;78.61;99336.75;3589135;40;20062;-65
2021/12/04 10:38:44;;;;;;;7.75;6.60;;;;;;;6.57;78.75;99345.00;3579353;40;20052;-64
2021/12/04 10:41:15;;;;;;;9.32;6.22;;;;;;;6.61;78.32;99341.13;3592670;40;20071;-63
2021/12/04 10:43:41;;;;;;;8.77;6.90;;;;;;;6.62;78.34;99337.50;3591860;40;20052;-64
2021/12/04 10:46:14;;;;;;;8.02;6.32;;;;;;;6.63;78.17;99325.88;3590374;40;20055;-63
2021/12/04 10:48:49;;;;;;;7.43;6.55;;;;;;;6.68;78.17;99331.72;3590712;40;20047;-64
2021/12/04 10:53:49;;;;;;;8.35;6.82;;;;;;;6.64;78.77;99314.22;3591966;40;20145;-62
2021/12/04 11:01:44;;;;;;;7.13;6.28;;;;;;;6.83;78.94;99308.44;3591255;40;20290;-64
2021/12/04 11:21:35;;;;;;;6.95;6.25;;;;;;;7.05;78.23;99272.19;3590875;40;20054;-64
2021/12/04 11:27:24;;;;;;;6.63;5.47;;;;;;;7.14;78.57;99264.34;3586255;40;20047;-64
2021/12/04 11:36:02;;;;;;;5.60;5.03;;;;;;;6.50;77.03;99149.69;3588637;40;20343;-65
2021/12/04 11:40:54;;;;;;;5.55;5.00;;;;;;;7.15;77.17;99243.84;3584046;40;20048;-64
2021/12/04 11:43:27;;;;;;;7.70;5.13;;;;;;;7.20;76.47;99261.25;3589601;40;20056;-64
2021/12/04 11:48:41;;;;;;;7.00;4.88;;;;;;;7.17;77.11;99247.25;3586718;40;20088;-64
2021/12/04 11:51:24;;;;;;;5.85;5.25;;;;;;;7.13;77.29;99235.91;3584954;40;20122;-64
2021/12/04 11:53:53;;;;;;;6.05;5.43;;;;;;;7.12;77.22;99242.22;3585205;40;20287;-65
2021/12/04 11:56:27;;;;;;;6.20;5.43;;;;;;;7.13;77.40;99241.25;3584486;40;20125;-64
2021/12/04 11:58:53;;;;;;;6.18;5.57;;;;;;;7.11;77.21;99248.56;3588079;40;20382;-64
2021/12/04 12:01:31;;;;;;;7.68;5.80;;;;;;;7.11;77.28;99237.88;3589467;40;20409;-64
2021/12/04 12:04:08;;;;;;;7.65;5.93;;;;;;;7.07;77.36;99232.84;3587836;39;20092;-64
2021/12/04 12:06:42;;;;;;;6.53;5.80;;;;;;;7.10;78.07;99230.78;3577298;40;20056;-64
2021/12/04 12:09:18;;;;;;;9.88;7.43;;;;;;;7.13;77.29;99230.56;3584193;40;20070;-64
2021/12/04 12:12:00;;;;;;;10.38;7.95;;;;;;;7.11;77.77;99226.31;3589632;39;20558;-64
2021/12/04 12:14:54;;;;;;;10.82;6.82;;;;;;;7.12;78.77;99226.19;3584307;40;20036;-64
2021/12/04 12:17:34;;;;;;;7.40;6.43;;;;;;;7.09;78.54;99228.25;3585776;40;20047;-64
2021/12/04 12:20:04;;;;;;;8.27;6.43;;;;;;;7.07;78.84;99231.03;3588627;39;20053;-64
2021/12/04 12:34:14;;;;;;;8.30;6.45;;;;;;;6.48;79.27;99159.63;3591500;40;20059;-64
2021/12/04 12:36:40;;;;;;;7.20;6.50;;;;;;;6.96;79.74;99228.28;3590827;39;20059;-66
2021/12/04 12:39:06;;;;;;;140.43;21.63;;;;;;;6.97;80.80;99229.97;3589308;39;20075;-66
2021/12/04 12:41:45;;;;;;;33.90;9.75;;;;;;;6.97;80.76;99240.66;3590943;40;20080;-67
2021/12/04 12:44:31;;;;;;;58.08;14.02;;;;;;;6.94;80.40;99239.06;3588059;40;20056;-67
2021/12/04 12:47:06;;;;;;;10.30;7.50;;;;;;;6.94;80.74;99238.22;3591550;40;20063;-69
2021/12/04 12:49:40;;;;;;;9.10;8.10;;;;;;;6.90;80.60;99242.09;3590886;40;20044;-67
2021/12/04 12:52:27;;;;;;;9.93;8.73;;;;;;;6.85;81.52;99237.09;3587757;40;20056;-67
2021/12/04 12:55:08;;;;;;;11.15;9.95;;;;;;;6.83;81.95;99235.47;3590232;39;20651;-67
2021/12/04 12:57:45;;;;;;;14.82;10.95;;;;;;;6.81;81.83;99230.25;3590943;40;20416;-67
2021/12/04 13:12:09;;;;;;;16.67;14.05;;;;;;;6.79;82.20;99207.28;3588270;39;20042;-66
2021/12/04 13:14:42;;;;;;;15.90;13.70;;;;;;;6.81;82.36;99218.72;3587431;40;20117;-66
2021/12/04 13:17:25;;;;;;;16.83;15.03;;;;;;;6.82;82.23;99210.59;3589022;40;20064;-65
2021/12/04 13:19:56;;;;;;;18.05;14.32;;;;;;;6.82;81.85;99215.94;3586257;40;20056;-66
2021/12/04 13:22:30;;;;;;;16.30;13.98;;;;;;;6.85;82.04;99209.50;3589456;40;20052;-66
2021/12/04 13:25:04;;;;;;;19.88;14.63;;;;;;;6.85;82.01;99209.50;3588969;40;20056;-66
2021/12/04 13:30:15;;;;;;;17.00;14.13;;;;;;;6.87;81.74;99212.94;3589317;40;20047;-65
2021/12/04 13:32:45;;;;;;;16.60;14.10;;;;;;;6.85;82.18;99201.50;3587869;40;20106;-65
2021/12/04 13:35:22;;;;;;;13.50;12.10;;;;;;;6.87;82.36;99205.75;3589441;40;20052;-65
2021/12/04 13:38:01;;;;;;;13.35;11.95;;;;;;;6.88;81.97;99209.28;3588161;40;20598;-66
2021/12/04 13:40:28;;;;;;;14.70;11.93;;;;;;;6.90;82.01;99212.69;3587433;40;20644;-66
2021/12/04 13:42:54;;;;;;;13.82;11.60;;;;;;;6.89;81.87;99206.50;3589991;40;20051;-66
2021/12/04 13:45:21;;;;;;;15.30;11.68;;;;;;;6.90;82.37;99213.56;3591844;39;20056;-66
2021/12/04 13:47:57;;;;;;;13.95;11.93;;;;;;;6.88;82.48;99201.25;3590241;40;20378;-66
2021/12/04 13:53:31;;;;;;;13.90;11.82;;;;;;;6.91;82.12;99211.72;3586606;40;20379;-66
2021/12/04 13:56:14;;;;;;;13.98;11.27;;;;;;;6.94;82.66;99208.84;3588283;40;20566;-66
2021/12/04 13:58:57;;;;;;;12.60;11.30;;;;;;;6.94;82.23;99206.16;3588432;40;20305;-66
2021/12/04 14:01:25;;;;;;;13.00;11.60;;;;;;;6.76;82.39;99168.31;3592186;39;20370;-66
2021/12/04 14:04:00;;;;;;;12.65;11.35;;;;;;;6.84;81.98;99186.44;3590553;39;20047;-66
2021/12/04 14:06:27;;;;;;;12.88;11.20;;;;;;;6.93;82.78;99201.78;3590446;40;20375;-65
2021/12/04 14:09:02;;;;;;;14.20;11.60;;;;;;;6.90;82.23;99202.88;3577377;40;20084;-65
2021/12/04 14:11:41;;;;;;;15.02;11.50;;;;;;;6.87;82.12;99199.56;3590483;40;20051;-65
2021/12/04 14:14:26;;;;;;;14.15;11.93;;;;;;;6.94;82.26;99214.19;3587124;40;20059;-65
2021/12/04 14:16:55;;;;;;;16.23;11.80;;;;;;;6.96;82.45;99212.25;3588249;40;20051;-65
2021/12/04 14:19:27;;;;;;;16.40;12.05;;;;;;;6.97;82.62;99213.97;3588222;39;20055;-65
2021/12/04 14:22:02;;;;;;;15.13;12.77;;;;;;;6.96;82.72;99209.59;3589124;40;20077;-65
2021/12/04 14:24:41;;;;;;;15.73;12.52;;;;;;;6.98;82.65;99213.00;3591118;40;20078;-65
2021/12/04 14:27:07;;;;;;;14.45;12.43;;;;;;;7.00;82.65;99227.09;3588163;39;20409;-65
2021/12/04 14:29:41;;;;;;;16.35;12.65;;;;;;;6.99;82.15;99228.06;3589280;40;20429;-65
2021/12/04 14:32:10;;;;;;;13.95;11.73;;;;;;;6.97;82.17;99235.31;3590190;40;20063;-65
2021/12/04 14:34:37;;;;;;;12.27;10.88;;;;;;;6.95;82.89;99231.94;3588884;40;20058;-65
2021/12/04 14:37:10;;;;;;;14.68;10.80;;;;;;;6.94;82.02;99241.75;3589667;39;20056;-65
2021/12/04 14:39:36;;;;;;;13.88;10.65;;;;;;;6.92;82.39;99248.19;3578917;40;20315;-65
2021/12/04 14:42:15;;;;;;;15.80;10.55;;;;;;;6.90;81.99;99261.63;3587084;40;20425;-65
2021/12/04 14:44:51;;;;;;;14.15;10.55;;;;;;;6.88;82.10;99252.91;3589969;40;20139;-64
2021/12/04 14:47:20;;;;;;;10.13;8.38;;;;;;;6.85;82.08;99261.13;3582997;40;20063;-65
2021/12/04 14:49:57;;;;;;;11.85;8.20;;;;;;;6.88;81.69;99268.03;3586153;40;20349;-64
2021/12/04 14:52:24;;;;;;;12.30;8.40;;;;;;;6.89;82.12;99269.78;3585885;39;20126;-65